createdAt,value
2023-03-21T00:02:07.354Z,9.50
2023-03-21T00:04:48.374Z,10.00
2023-03-21T00:07:18.280Z,10.87
2023-03-21T00:09:45.436Z,11.47
2023-03-21T00:12:12.779Z,9.00
2023-03-21T00:14:39.903Z,9.77
2023-03-21T00:17:07.397Z,8.77
2023-03-21T00:19:38.290Z,11.03
2023-03-21T00:22:08.375Z,7.93
2023-03-21T00:24:36.579Z,10.70
2023-03-21T00:27:26.884Z,12.90
2023-03-21T00:29:51.290Z,13.83
2023-03-21T00:32:19.142Z,9.57
2023-03-21T00:34:59.608Z,9.67
2023-03-21T00:37:32.184Z,10.87
2023-03-21T00:39:59.380Z,12.80
2023-03-21T00:42:26.548Z,11.90
2023-03-21T00:44:53.654Z,11.03
2023-03-21T00:47:20.741Z,12.83
2023-03-21T00:49:47.874Z,14.27
2023-03-21T00:52:22.189Z,9.93
2023-03-21T00:54:54.645Z,13.00
2023-03-21T00:57:29.306Z,9.37
2023-03-21T01:00:04.358Z,15.70
2023-03-21T01:02:31.530Z,11.27
2023-03-21T01:04:58.643Z,10.87
2023-03-21T01:07:25.768Z,12.00
2023-03-21T01:09:52.860Z,10.13
2023-03-21T01:12:20.230Z,10.67
2023-03-21T01:14:47.395Z,8.57
2023-03-21T01:17:14.506Z,10.33
2023-03-21T01:19:51.503Z,10.60
2023-03-21T01:22:18.988Z,10.23
2023-03-21T01:24:54.195Z,11.27
2023-03-21T01:27:22.508Z,13.60
2023-03-21T01:29:49.649Z,9.77
2023-03-21T01:32:16.897Z,8.03
2023-03-21T01:34:44.009Z,12.03
2023-03-21T01:37:11.111Z,10.27
2023-03-21T01:39:38.204Z,9.77
2023-03-21T01:42:05.457Z,9.00
2023-03-21T01:44:32.616Z,10.60
2023-03-21T01:47:15.473Z,11.00
2023-03-21T01:49:48.508Z,13.13
2023-03-21T01:52:29.620Z,7.77
2023-03-21T01:55:03.826Z,11.87
2023-03-21T01:57:47.288Z,11.33
2023-03-21T02:00:24.955Z,9.90
2023-03-21T02:02:58.206Z,13.77
2023-03-21T02:05:30.027Z,8.53
2023-03-21T02:07:57.527Z,12.43
2023-03-21T02:10:24.647Z,13.70
2023-03-21T02:12:54.964Z,9.87
2023-03-21T02:15:23.181Z,8.73
2023-03-21T02:18:03.420Z,15.43
2023-03-21T02:20:51.119Z,8.37
2023-03-21T02:23:41.540Z,11.03
2023-03-21T02:26:21.353Z,10.47
2023-03-21T02:28:56.963Z,8.87
2023-03-21T02:31:47.472Z,12.03
2023-03-21T02:34:23.742Z,12.13
2023-03-21T02:36:50.885Z,10.63
2023-03-21T02:39:38.699Z,11.00
2023-03-21T02:42:15.659Z,11.13
2023-03-21T02:44:48.673Z,9.73
2023-03-21T02:47:20.668Z,9.93
2023-03-21T02:49:51.835Z,15.53
2023-03-21T02:52:35.549Z,12.60
2023-03-21T02:55:06.822Z,11.67
2023-03-21T02:57:42.597Z,16.00
2023-03-21T03:00:16.664Z,10.40
2023-03-21T03:02:44.618Z,13.77
2023-03-21T03:05:21.228Z,14.20
2023-03-21T03:08:18.303Z,14.00
2023-03-21T03:11:00.609Z,10.27
2023-03-21T03:13:36.037Z,12.47
2023-03-21T03:16:16.299Z,12.23
2023-03-21T03:18:52.225Z,11.97
2023-03-21T03:21:22.385Z,11.73
2023-03-21T03:23:49.463Z,12.70
2023-03-21T03:26:20.310Z,13.17
2023-03-21T03:28:50.196Z,13.40
2023-03-21T03:31:21.887Z,14.83
2023-03-21T03:33:52.156Z,12.60
2023-03-21T03:36:31.714Z,10.47
2023-03-21T03:39:00.726Z,12.40
2023-03-21T03:41:31.880Z,10.87
2023-03-21T03:44:01.227Z,9.63
2023-03-21T03:46:33.497Z,13.40
2023-03-21T03:49:08.646Z,11.30
2023-03-21T03:51:52.188Z,18.30
2023-03-21T03:54:21.927Z,13.23
2023-03-21T03:56:49.277Z,11.63
2023-03-21T03:59:21.979Z,16.47
2023-03-21T04:01:49.325Z,13.07
2023-03-21T04:04:17.068Z,10.77
2023-03-21T04:06:51.544Z,12.03
2023-03-21T04:09:23.501Z,10.37
2023-03-21T04:11:56.202Z,12.10
2023-03-21T04:14:24.507Z,14.87
2023-03-21T04:16:52.221Z,13.20
2023-03-21T04:19:19.737Z,12.33
2023-03-21T04:21:47.486Z,11.87
2023-03-21T04:24:14.604Z,13.37
2023-03-21T04:26:42.049Z,9.70
2023-03-21T04:29:09.166Z,10.57
2023-03-21T04:31:36.379Z,11.93
2023-03-21T04:34:09.667Z,12.40
2023-03-21T04:36:47.286Z,17.03
2023-03-21T04:39:15.017Z,13.07
2023-03-21T04:41:43.159Z,15.77
2023-03-21T04:44:10.477Z,10.33
2023-03-21T04:46:37.641Z,16.70
2023-03-21T04:49:06.978Z,11.70
2023-03-21T04:51:34.391Z,9.37
2023-03-21T04:54:01.520Z,13.73
2023-03-21T04:56:33.762Z,12.83
2023-03-21T04:59:02.183Z,10.33
2023-03-21T05:01:32.171Z,10.33
2023-03-21T05:03:59.995Z,12.73
2023-03-21T05:06:27.923Z,9.70
2023-03-21T05:08:56.693Z,13.80
2023-03-21T05:11:23.870Z,11.67
2023-03-21T05:13:50.978Z,9.87
2023-03-21T05:16:18.125Z,16.03
2023-03-21T05:18:45.348Z,9.63
2023-03-21T05:21:12.506Z,15.37
2023-03-21T05:23:42.155Z,10.87
2023-03-21T05:26:10.364Z,11.73
2023-03-21T05:28:37.520Z,11.77
2023-03-21T05:31:05.016Z,17.93
2023-03-21T05:33:32.192Z,13.83
2023-03-21T05:35:59.491Z,10.73
2023-03-21T05:38:26.737Z,12.30
2023-03-21T05:40:55.064Z,12.93
2023-03-21T05:43:22.220Z,15.23
2023-03-21T05:45:49.431Z,13.40
2023-03-21T05:48:16.618Z,12.20
2023-03-21T05:50:43.826Z,11.80
2023-03-21T05:53:10.992Z,11.40
2023-03-21T05:55:38.812Z,10.53
2023-03-21T05:58:06.254Z,12.33
2023-03-21T06:00:33.464Z,12.20
2023-03-21T06:03:00.687Z,11.90
2023-03-21T06:05:27.908Z,11.90
2023-03-21T06:07:55.381Z,11.03
2023-03-21T06:10:22.691Z,13.77
2023-03-21T06:12:49.880Z,12.37
2023-03-21T06:15:17.285Z,11.57
2023-03-21T06:17:44.465Z,18.17
2023-03-21T06:20:11.961Z,22.97
2023-03-21T06:22:39.165Z,24.00
2023-03-21T06:25:07.669Z,24.33
2023-03-21T06:27:35.503Z,22.83
2023-03-21T06:30:02.793Z,20.70
2023-03-21T06:32:29.989Z,18.87
2023-03-21T06:34:57.179Z,18.33
2023-03-21T06:37:26.374Z,18.67
2023-03-21T06:39:55.488Z,12.87
2023-03-21T06:42:22.793Z,16.73
2023-03-21T06:44:50.560Z,16.43
2023-03-21T06:47:17.678Z,15.97
2023-03-21T06:49:45.102Z,16.57
2023-03-21T06:52:12.232Z,16.43
2023-03-21T06:54:39.471Z,15.47
2023-03-21T06:57:06.653Z,12.73
2023-03-21T06:59:33.809Z,17.23
2023-03-21T07:02:01.526Z,13.97
2023-03-21T07:04:28.912Z,14.37
2023-03-21T07:06:56.490Z,14.60
2023-03-21T07:09:27.941Z,15.75
2023-03-21T07:11:55.217Z,20.40
2023-03-21T07:14:23.872Z,14.38
2023-03-21T07:16:51.155Z,19.17
2023-03-21T07:19:18.344Z,14.93
2023-03-21T07:21:45.750Z,13.98
2023-03-21T07:24:12.885Z,16.98
2023-03-21T07:26:40.388Z,15.80
2023-03-21T07:29:07.548Z,14.68
2023-03-21T07:31:35.712Z,12.77
2023-03-21T07:34:02.857Z,15.52
2023-03-21T07:36:29.972Z,15.02
2023-03-21T07:38:57.094Z,10.02
2023-03-21T07:41:24.295Z,12.20
2023-03-21T07:43:51.606Z,10.85
2023-03-21T07:46:18.773Z,8.80
2023-03-21T07:48:45.891Z,10.35
2023-03-21T07:51:13.050Z,9.00
2023-03-21T07:53:41.925Z,10.00
2023-03-21T07:56:09.222Z,11.10
2023-03-21T07:58:36.341Z,10.30
2023-03-21T08:01:03.565Z,10.77
2023-03-21T08:03:32.678Z,11.40
2023-03-21T08:06:01.416Z,12.07
2023-03-21T08:08:28.618Z,11.73
2023-03-21T08:10:55.909Z,13.40
2023-03-21T08:13:23.124Z,11.10
2023-03-21T08:15:50.299Z,10.70
2023-03-21T08:18:17.564Z,9.23
2023-03-21T08:20:44.658Z,11.82
2023-03-21T08:23:11.849Z,14.18
2023-03-21T08:25:39.727Z,12.95
2023-03-21T08:28:07.003Z,9.57
2023-03-21T08:30:34.211Z,11.25
2023-03-21T08:33:02.161Z,15.77
2023-03-21T08:35:29.542Z,10.95
2023-03-21T08:37:57.262Z,12.07
2023-03-21T08:40:24.395Z,12.75
2023-03-21T08:42:51.534Z,11.32
2023-03-21T08:45:18.699Z,12.30
2023-03-21T08:47:46.365Z,10.70
2023-03-21T08:50:15.722Z,10.27
2023-03-21T08:52:42.946Z,9.10
2023-03-21T08:55:10.995Z,11.95
2023-03-21T08:57:38.297Z,11.90
2023-03-21T09:00:17.149Z,10.88
2023-03-21T09:02:48.629Z,9.68
2023-03-21T09:05:16.881Z,12.88
2023-03-21T09:07:44.143Z,14.48
2023-03-21T09:10:20.712Z,10.85
2023-03-21T09:12:50.052Z,15.75
2023-03-21T09:15:18.453Z,10.65
2023-03-21T09:17:52.787Z,9.15
2023-03-21T09:20:26.089Z,10.50
2023-03-21T09:22:53.806Z,13.40
2023-03-21T09:25:21.595Z,10.25
2023-03-21T09:27:49.151Z,11.02
2023-03-21T09:30:17.071Z,11.93
2023-03-21T09:32:47.342Z,11.15
2023-03-21T09:35:16.139Z,9.50
2023-03-21T09:37:43.955Z,11.70
2023-03-21T09:40:20.635Z,8.50
2023-03-21T09:43:11.374Z,9.75
2023-03-21T09:45:43.348Z,14.82
2023-03-21T09:48:17.566Z,10.63
2023-03-21T09:50:45.189Z,9.70
2023-03-21T09:53:21.073Z,12.50
2023-03-21T09:55:48.194Z,10.18
2023-03-21T09:58:26.607Z,12.30
2023-03-21T10:00:59.791Z,10.55
2023-03-21T10:03:30.861Z,12.70
2023-03-21T10:06:01.550Z,12.65
2023-03-21T10:08:34.890Z,9.98
2023-03-21T10:11:07.709Z,10.48
2023-03-21T10:13:36.546Z,9.30
2023-03-21T10:16:15.341Z,8.57
2023-03-21T10:18:43.432Z,9.98
2023-03-21T10:21:37.321Z,10.85
2023-03-21T10:24:04.040Z,9.80
2023-03-21T10:26:31.417Z,11.25
2023-03-21T10:29:02.950Z,9.30
2023-03-21T10:31:30.417Z,8.07
2023-03-21T10:33:59.822Z,11.95
2023-03-21T10:36:28.205Z,9.48
2023-03-21T10:39:03.338Z,10.88
2023-03-21T10:41:30.628Z,9.90
2023-03-21T10:44:14.754Z,11.15
2023-03-21T10:46:56.067Z,9.25
2023-03-21T10:49:25.377Z,8.90
2023-03-21T10:51:54.477Z,11.25
2023-03-21T10:54:22.927Z,10.32
2023-03-21T10:57:01.393Z,8.45
2023-03-21T10:59:30.215Z,8.80
2023-03-21T11:01:57.603Z,7.60
2023-03-21T11:04:29.951Z,12.20
2023-03-21T11:07:01.629Z,9.95
2023-03-21T11:09:44.017Z,10.32
2023-03-21T11:12:12.134Z,10.68
2023-03-21T11:14:39.246Z,9.60
2023-03-21T11:17:18.552Z,11.15
2023-03-21T11:19:49.951Z,10.65
2023-03-21T11:22:18.006Z,9.70
2023-03-21T11:24:49.322Z,8.93
2023-03-21T11:27:16.616Z,11.00
2023-03-21T11:29:51.542Z,9.15
2023-03-21T11:32:23.014Z,12.73
2023-03-21T11:34:57.887Z,12.65
2023-03-21T11:37:24.998Z,9.45
2023-03-21T11:39:56.029Z,9.80
2023-03-21T11:42:27.693Z,11.15
2023-03-21T11:45:11.030Z,10.18
2023-03-21T11:47:38.808Z,7.60
2023-03-21T11:50:24.862Z,12.18
2023-03-21T11:52:57.800Z,9.70
2023-03-21T11:55:37.614Z,10.52
2023-03-21T11:58:31.210Z,10.23
2023-03-21T12:01:10.092Z,9.15
2023-03-21T12:03:49.037Z,10.20
2023-03-21T12:06:22.153Z,9.18
2023-03-21T12:08:54.866Z,9.38
2023-03-21T12:11:41.905Z,10.88
2023-03-21T12:14:13.510Z,8.63
2023-03-21T12:16:45.272Z,8.15
2023-03-21T12:19:21.348Z,8.02
2023-03-21T12:22:08.699Z,7.38
2023-03-21T12:24:35.781Z,10.30
2023-03-21T12:27:02.855Z,8.50
2023-03-21T12:29:30.222Z,9.05
2023-03-21T12:32:00.493Z,6.90
2023-03-21T12:34:31.026Z,8.98
2023-03-21T12:36:58.144Z,9.57
2023-03-21T12:39:28.444Z,9.48
2023-03-21T12:42:01.332Z,8.50
2023-03-21T12:44:30.607Z,7.28
2023-03-21T12:47:02.541Z,8.07
2023-03-21T12:49:32.788Z,7.90
2023-03-21T12:52:02.322Z,7.22
2023-03-21T12:54:32.359Z,9.93
2023-03-21T12:57:07.668Z,5.15
2023-03-21T12:59:40.407Z,8.60
2023-03-21T13:02:19.415Z,11.77
2023-03-21T13:04:50.741Z,10.82
2023-03-21T13:07:20.061Z,7.97
2023-03-21T13:09:47.261Z,8.10
2023-03-21T13:12:25.290Z,8.85
2023-03-21T13:15:21.709Z,8.30
2023-03-21T13:17:58.568Z,11.18
2023-03-21T13:20:25.701Z,7.97
2023-03-21T13:22:52.903Z,9.05
2023-03-21T13:25:21.194Z,5.32
2023-03-21T13:27:55.376Z,9.93
2023-03-21T13:30:26.616Z,9.27
2023-03-21T13:33:17.378Z,7.03
2023-03-21T13:35:45.803Z,9.10
2023-03-21T13:38:16.715Z,8.55
2023-03-21T13:40:46.755Z,10.27
2023-03-21T13:43:32.369Z,9.18
2023-03-21T13:46:06.588Z,12.15
2023-03-21T13:48:49.437Z,9.00
2023-03-21T13:51:29.496Z,12.35
2023-03-21T13:54:01.078Z,9.02
2023-03-21T13:56:30.455Z,9.57
2023-03-21T13:59:02.711Z,10.65
2023-03-21T14:01:41.448Z,7.63
2023-03-21T14:04:26.404Z,9.10
2023-03-21T14:07:03.642Z,9.00
2023-03-21T14:09:36.945Z,8.93
2023-03-21T14:12:07.810Z,7.28
2023-03-21T14:14:38.875Z,9.73
2023-03-21T14:17:12.941Z,6.43
2023-03-21T14:19:40.258Z,9.95
2023-03-21T14:22:12.283Z,8.80
2023-03-21T14:24:41.234Z,7.07
2023-03-21T14:27:09.294Z,8.83
2023-03-21T14:29:36.712Z,7.70
2023-03-21T14:32:04.356Z,10.73
2023-03-21T14:34:34.106Z,13.10
2023-03-21T14:37:01.388Z,9.40
2023-03-21T14:39:30.785Z,10.67
2023-03-21T14:42:02.247Z,11.37
2023-03-21T14:44:52.838Z,8.77
2023-03-21T14:47:22.446Z,13.93
2023-03-21T14:49:50.322Z,10.70
2023-03-21T14:52:20.879Z,13.30
2023-03-21T14:54:48.141Z,9.47
2023-03-21T14:57:19.743Z,10.77
2023-03-21T14:59:48.561Z,9.77
2023-03-21T15:02:15.777Z,10.50
2023-03-21T15:04:44.085Z,9.97
2023-03-21T15:07:24.169Z,10.97
2023-03-21T15:09:56.053Z,11.43
2023-03-21T15:12:23.297Z,11.43
2023-03-21T15:14:50.710Z,15.20
2023-03-21T15:17:18.204Z,12.93
2023-03-21T15:19:45.366Z,11.30
2023-03-21T15:22:19.302Z,9.93
2023-03-21T15:24:50.304Z,10.50
2023-03-21T15:27:19.122Z,9.63
2023-03-21T15:29:46.726Z,11.43
2023-03-21T15:32:16.336Z,11.60
2023-03-21T15:34:43.655Z,8.87
2023-03-21T15:37:17.183Z,10.97
2023-03-21T15:39:44.452Z,11.70
2023-03-21T15:42:23.873Z,11.57
2023-03-21T15:44:53.254Z,14.47
2023-03-21T15:47:38.903Z,10.00
2023-03-21T15:50:11.400Z,13.63
2023-03-21T15:52:38.661Z,13.23
2023-03-21T15:55:17.783Z,13.40
2023-03-21T15:57:47.451Z,11.80
2023-03-21T16:00:19.870Z,14.20
2023-03-21T16:02:47.533Z,13.13
2023-03-21T16:05:33.849Z,11.50
2023-03-21T16:08:21.594Z,12.90
2023-03-21T16:10:49.104Z,17.10
2023-03-21T16:13:17.486Z,13.87
2023-03-21T16:15:45.544Z,12.40
2023-03-21T16:18:14.353Z,13.73
2023-03-21T16:20:47.125Z,17.70
2023-03-21T16:23:15.715Z,15.27
2023-03-21T16:25:44.392Z,13.90
2023-03-21T16:28:20.506Z,13.27
2023-03-21T16:30:47.704Z,14.80
2023-03-21T16:33:15.040Z,15.43
2023-03-21T16:35:42.252Z,18.33
2023-03-21T16:38:10.591Z,13.57
2023-03-21T16:40:39.415Z,17.20
2023-03-21T16:43:06.887Z,21.33
2023-03-21T16:45:34.327Z,14.70
2023-03-21T16:48:01.592Z,18.70
2023-03-21T16:50:29.562Z,15.67
2023-03-21T16:52:57.497Z,18.33
2023-03-21T16:55:25.179Z,16.87
2023-03-21T16:57:52.819Z,17.27
2023-03-21T17:00:23.173Z,19.77
2023-03-21T17:02:51.896Z,18.07
2023-03-21T17:05:19.086Z,13.77
2023-03-21T17:07:47.091Z,17.97
2023-03-21T17:10:19.137Z,16.93
2023-03-21T17:12:46.384Z,14.33
2023-03-21T17:15:13.984Z,18.23
2023-03-21T17:17:41.249Z,17.17
2023-03-21T17:20:20.254Z,15.73
2023-03-21T17:22:47.859Z,13.77
2023-03-21T17:25:15.650Z,18.60
2023-03-21T17:27:42.938Z,21.40
2023-03-21T17:30:36.849Z,17.80
2023-03-21T17:33:04.353Z,19.23
2023-03-21T17:35:31.542Z,20.80
2023-03-21T17:37:58.830Z,21.10
2023-03-21T17:40:27.991Z,18.10
2023-03-21T17:42:55.407Z,25.10
2023-03-21T17:45:23.067Z,23.53
2023-03-21T17:47:51.129Z,25.57
2023-03-21T17:50:22.782Z,26.00
2023-03-21T17:52:50.879Z,22.40
2023-03-21T17:55:19.660Z,31.70
2023-03-21T17:57:47.525Z,24.37
2023-03-21T18:00:21.222Z,27.70
2023-03-21T18:02:48.820Z,26.23
2023-03-21T18:05:16.338Z,30.20
2023-03-21T18:10:32.026Z,23.10
2023-03-21T18:13:00.232Z,26.33
2023-03-21T18:15:30.529Z,23.73
2023-03-21T18:17:58.153Z,27.33
2023-03-21T18:20:44.636Z,26.23
2023-03-21T18:23:14.784Z,26.73
2023-03-21T18:25:41.959Z,22.63
2023-03-21T18:28:11.861Z,26.50
2023-03-21T18:31:05.264Z,30.87
2023-03-21T18:33:27.617Z,26.17
2023-03-21T18:35:59.303Z,29.23
2023-03-21T18:38:27.502Z,31.17
2023-03-21T18:40:54.779Z,29.90
2023-03-21T18:46:09.799Z,35.73
2023-03-21T18:48:37.025Z,32.67
2023-03-21T18:51:04.471Z,37.30
2023-03-21T18:53:31.671Z,33.77
2023-03-21T18:55:58.832Z,31.87
2023-03-21T18:58:26.361Z,37.53
2023-03-21T19:00:54.036Z,33.03
2023-03-21T19:03:35.109Z,37.83
2023-03-21T19:06:04.704Z,37.93
2023-03-21T19:08:32.320Z,33.67
2023-03-21T19:11:04.398Z,40.93
2023-03-21T19:13:33.565Z,36.90
2023-03-21T19:16:02.704Z,39.23
2023-03-21T19:18:49.865Z,34.27
2023-03-21T19:21:18.857Z,40.70
2023-03-21T19:26:33.274Z,51.60
2023-03-21T19:29:00.717Z,59.73
2023-03-21T19:31:27.952Z,56.63
2023-03-21T19:33:55.659Z,43.00
2023-03-21T19:36:23.584Z,42.37
2023-03-21T19:38:51.101Z,38.00
2023-03-21T19:41:18.863Z,41.67
2023-03-21T19:43:54.108Z,46.80
2023-03-21T19:46:24.980Z,47.33
2023-03-21T19:48:56.223Z,51.77
2023-03-21T19:51:30.044Z,76.87
2023-03-21T19:53:58.355Z,76.73
2023-03-21T19:56:27.276Z,76.43
2023-03-21T19:58:55.129Z,60.83
2023-03-21T20:01:22.894Z,64.60
2023-03-21T20:03:50.104Z,63.87
2023-03-21T20:06:17.727Z,63.00
2023-03-21T20:11:32.339Z,60.33
2023-03-21T20:14:01.916Z,64.67
2023-03-21T20:16:34.620Z,55.27
2023-03-21T20:19:02.624Z,49.97
2023-03-21T20:21:36.637Z,50.93
2023-03-21T20:24:12.674Z,50.37
2023-03-21T20:26:40.224Z,56.13
2023-03-21T20:29:54.972Z,55.60
2023-03-21T20:31:54.704Z,62.17
2023-03-21T20:34:21.916Z,65.33
2023-03-21T20:36:49.205Z,60.90
2023-03-21T20:39:16.365Z,66.60
2023-03-21T20:41:43.528Z,75.57
2023-03-21T20:46:59.939Z,77.23
2023-03-21T20:49:28.490Z,87.63
2023-03-21T20:54:43.766Z,78.10
2023-03-21T20:57:11.038Z,80.83
2023-03-21T20:59:38.518Z,76.43
2023-03-21T21:02:05.634Z,68.80
2023-03-21T21:05:15.676Z,77.80
2023-03-21T21:07:21.884Z,81.37
2023-03-21T21:09:49.917Z,80.20
2023-03-21T21:12:19.367Z,89.07
2023-03-21T21:14:47.826Z,85.40
2023-03-21T21:20:11.136Z,80.97
2023-03-21T21:22:39.874Z,86.90
2023-03-21T21:25:07.902Z,77.53
2023-03-21T21:27:35.609Z,78.43
2023-03-21T21:30:02.804Z,78.43
2023-03-21T21:32:30.321Z,77.47
2023-03-21T21:34:57.472Z,76.63
2023-03-21T21:37:25.120Z,61.37
2023-03-21T21:39:52.630Z,59.37
2023-03-21T21:42:19.829Z,47.63
2023-03-21T21:44:47.357Z,50.17
2023-03-21T21:47:15.506Z,57.40
2023-03-21T21:49:42.714Z,47.33
2023-03-21T21:52:13.531Z,51.03
2023-03-21T21:54:45.617Z,50.23
2023-03-21T21:57:13.540Z,53.33
2023-03-21T21:59:40.689Z,52.03
2023-03-21T22:02:09.615Z,52.33
2023-03-21T22:04:36.749Z,48.63
2023-03-21T22:07:05.985Z,44.90
2023-03-21T22:09:33.383Z,49.47
2023-03-21T22:12:00.607Z,46.80
2023-03-21T22:14:27.770Z,51.93
2023-03-21T22:16:55.020Z,59.47
2023-03-21T22:19:22.142Z,69.30
2023-03-21T22:21:49.374Z,76.07
2023-03-21T22:24:17.096Z,70.43
2023-03-21T22:26:44.279Z,57.50
2023-03-21T22:29:11.450Z,49.40
2023-03-21T22:31:41.911Z,40.53
2023-03-21T22:34:09.346Z,55.57
2023-03-21T22:36:36.430Z,50.80
2023-03-21T22:39:03.781Z,51.17
2023-03-21T22:41:30.882Z,49.83
2023-03-21T22:43:58.013Z,57.87
2023-03-21T22:46:25.317Z,59.77
2023-03-21T22:48:52.565Z,51.63
2023-03-21T22:51:19.681Z,59.57
2023-03-21T22:53:46.807Z,53.97
2023-03-21T22:56:13.945Z,60.27
2023-03-21T22:58:41.203Z,52.13
2023-03-21T23:01:08.365Z,66.87
2023-03-21T23:03:35.490Z,61.20
2023-03-21T23:06:02.630Z,58.63
2023-03-21T23:08:30.201Z,61.30
2023-03-21T23:10:57.344Z,51.97
2023-03-21T23:13:26.660Z,52.20
2023-03-21T23:15:53.781Z,44.77
2023-03-21T23:18:20.930Z,46.90
2023-03-21T23:20:49.784Z,53.80
2023-03-21T23:23:17.353Z,49.93
2023-03-21T23:25:45.139Z,44.93
2023-03-21T23:28:12.279Z,45.40
2023-03-21T23:30:39.581Z,46.57
2023-03-21T23:33:06.817Z,50.60
2023-03-21T23:35:35.850Z,51.30
2023-03-21T23:38:03.024Z,52.73
2023-03-21T23:40:30.185Z,60.03
2023-03-21T23:42:57.343Z,63.30
2023-03-21T23:45:24.475Z,65.80
2023-03-21T23:47:51.667Z,72.23
2023-03-21T23:50:18.820Z,111.67
2023-03-21T23:52:46.018Z,141.70
2023-03-21T23:55:13.201Z,129.90
2023-03-21T23:57:41.827Z,122.77
